sensor_id;sensor_type;location;lat;lon;timestamp;P1;durP1;ratioP1;P2;durP2;ratioP2
3726;SDS011;1879;45.876;12.300;2024-02-14T00:01:26;13.77;;;12.37;;
3726;SDS011;1879;45.876;12.300;2024-02-14T00:03:53;14.27;;;12.97;;
3726;SDS011;1879;45.876;12.300;2024-02-14T00:06:19;14.40;;;13.00;;
3726;SDS011;1879;45.876;12.300;2024-02-14T00:08:46;15.03;;;12.17;;
3726;SDS011;1879;45.876;12.300;2024-02-14T00:11:13;13.00;;;11.90;;
3726;SDS011;1879;45.876;12.300;2024-02-14T00:13:40;13.53;;;12.23;;
3726;SDS011;1879;45.876;12.300;2024-02-14T00:16:08;13.63;;;12.20;;
3726;SDS011;1879;45.876;12.300;2024-02-14T00:18:35;14.77;;;13.37;;
3726;SDS011;1879;45.876;12.300;2024-02-14T00:21:02;14.93;;;13.40;;
3726;SDS011;1879;45.876;12.300;2024-02-14T00:23:29;14.07;;;12.10;;
3726;SDS011;1879;45.876;12.300;2024-02-14T00:25:56;13.27;;;11.90;;
3726;SDS011;1879;45.876;12.300;2024-02-14T00:28:23;13.53;;;12.17;;
3726;SDS011;1879;45.876;12.300;2024-02-14T00:30:51;14.43;;;13.07;;
3726;SDS011;1879;45.876;12.300;2024-02-14T00:33:20;18.70;;;13.03;;
3726;SDS011;1879;45.876;12.300;2024-02-14T00:35:47;13.43;;;12.13;;
3726;SDS011;1879;45.876;12.300;2024-02-14T00:38:14;14.67;;;13.40;;
3726;SDS011;1879;45.876;12.300;2024-02-14T00:40:41;17.07;;;13.70;;
3726;SDS011;1879;45.876;12.300;2024-02-14T00:43:08;14.17;;;12.73;;
3726;SDS011;1879;45.876;12.300;2024-02-14T00:45:35;16.17;;;14.57;;
3726;SDS011;1879;45.876;12.300;2024-02-14T00:48:03;15.80;;;14.50;;
3726;SDS011;1879;45.876;12.300;2024-02-14T00:50:33;16.40;;;14.80;;
3726;SDS011;1879;45.876;12.300;2024-02-14T00:53:00;15.43;;;14.03;;
3726;SDS011;1879;45.876;12.300;2024-02-14T00:55:27;14.47;;;13.23;;
3726;SDS011;1879;45.876;12.300;2024-02-14T00:57:54;14.47;;;13.23;;
3726;SDS011;1879;45.876;12.300;2024-02-14T01:00:21;13.87;;;12.57;;
3726;SDS011;1879;45.876;12.300;2024-02-14T01:02:48;13.30;;;11.97;;
3726;SDS011;1879;45.876;12.300;2024-02-14T01:05:15;13.00;;;11.90;;
3726;SDS011;1879;45.876;12.300;2024-02-14T01:07:43;15.63;;;11.40;;
3726;SDS011;1879;45.876;12.300;2024-02-14T01:10:11;12.43;;;11.37;;
3726;SDS011;1879;45.876;12.300;2024-02-14T01:12:38;13.40;;;12.20;;
3726;SDS011;1879;45.876;12.300;2024-02-14T01:15:06;13.80;;;12.40;;
3726;SDS011;1879;45.876;12.300;2024-02-14T01:17:33;13.50;;;12.23;;
3726;SDS011;1879;45.876;12.300;2024-02-14T01:20:01;15.37;;;13.87;;
3726;SDS011;1879;45.876;12.300;2024-02-14T01:22:28;18.17;;;15.83;;
3726;SDS011;1879;45.876;12.300;2024-02-14T01:24:57;16.17;;;14.50;;
3726;SDS011;1879;45.876;12.300;2024-02-14T01:27:24;18.70;;;15.10;;
3726;SDS011;1879;45.876;12.300;2024-02-14T01:29:51;17.97;;;14.83;;
3726;SDS011;1879;45.876;12.300;2024-02-14T01:32:20;16.60;;;15.00;;
3726;SDS011;1879;45.876;12.300;2024-02-14T01:34:47;15.67;;;14.07;;
3726;SDS011;1879;45.876;12.300;2024-02-14T01:37:14;17.33;;;14.53;;
3726;SDS011;1879;45.876;12.300;2024-02-14T01:39:41;16.60;;;14.90;;
3726;SDS011;1879;45.876;12.300;2024-02-14T01:42:09;15.87;;;14.43;;
3726;SDS011;1879;45.876;12.300;2024-02-14T01:44:36;14.37;;;12.37;;
3726;SDS011;1879;45.876;12.300;2024-02-14T01:47:03;13.70;;;12.20;;
3726;SDS011;1879;45.876;12.300;2024-02-14T01:49:31;14.37;;;12.90;;
3726;SDS011;1879;45.876;12.300;2024-02-14T01:52:01;16.87;;;14.07;;
3726;SDS011;1879;45.876;12.300;2024-02-14T01:54:29;15.53;;;13.90;;
3726;SDS011;1879;45.876;12.300;2024-02-14T01:56:56;15.43;;;13.83;;
3726;SDS011;1879;45.876;12.300;2024-02-14T01:59:26;15.20;;;13.53;;
3726;SDS011;1879;45.876;12.300;2024-02-14T02:01:53;14.73;;;12.47;;
3726;SDS011;1879;45.876;12.300;2024-02-14T02:04:20;14.37;;;12.97;;
3726;SDS011;1879;45.876;12.300;2024-02-14T02:06:47;14.50;;;13.10;;
3726;SDS011;1879;45.876;12.300;2024-02-14T02:09:14;17.07;;;13.20;;
3726;SDS011;1879;45.876;12.300;2024-02-14T02:11:48;14.80;;;12.67;;
3726;SDS011;1879;45.876;12.300;2024-02-14T02:14:15;15.23;;;12.63;;
3726;SDS011;1879;45.876;12.300;2024-02-14T02:16:44;12.83;;;11.60;;
3726;SDS011;1879;45.876;12.300;2024-02-14T02:19:12;13.70;;;12.40;;
3726;SDS011;1879;45.876;12.300;2024-02-14T02:21:41;13.13;;;11.93;;
3726;SDS011;1879;45.876;12.300;2024-02-14T02:24:10;13.40;;;9.30;;
3726;SDS011;1879;45.876;12.300;2024-02-14T02:26:37;11.27;;;10.37;;
3726;SDS011;1879;45.876;12.300;2024-02-14T02:29:04;10.30;;;9.37;;
3726;SDS011;1879;45.876;12.300;2024-02-14T02:31:31;10.43;;;9.43;;
3726;SDS011;1879;45.876;12.300;2024-02-14T02:33:58;11.90;;;10.90;;
3726;SDS011;1879;45.876;12.300;2024-02-14T02:36:25;11.00;;;10.00;;
3726;SDS011;1879;45.876;12.300;2024-02-14T02:38:55;12.40;;;11.10;;
3726;SDS011;1879;45.876;12.300;2024-02-14T02:41:24;12.50;;;11.30;;
3726;SDS011;1879;45.876;12.300;2024-02-14T02:43:51;13.57;;;12.23;;
3726;SDS011;1879;45.876;12.300;2024-02-14T02:46:19;12.70;;;11.40;;
3726;SDS011;1879;45.876;12.300;2024-02-14T02:48:47;13.13;;;10.87;;
3726;SDS011;1879;45.876;12.300;2024-02-14T02:51:15;12.13;;;10.93;;
3726;SDS011;1879;45.876;12.300;2024-02-14T02:53:42;11.30;;;10.20;;
3726;SDS011;1879;45.876;12.300;2024-02-14T02:56:10;13.10;;;11.80;;
3726;SDS011;1879;45.876;12.300;2024-02-14T02:58:38;11.97;;;10.80;;
3726;SDS011;1879;45.876;12.300;2024-02-14T03:01:07;12.57;;;11.37;;
3726;SDS011;1879;45.876;12.300;2024-02-14T03:03:34;11.53;;;10.47;;
3726;SDS011;1879;45.876;12.300;2024-02-14T03:06:04;13.07;;;11.97;;
3726;SDS011;1879;45.876;12.300;2024-02-14T03:08:31;13.57;;;12.13;;
3726;SDS011;1879;45.876;12.300;2024-02-14T03:11:02;11.90;;;10.70;;
3726;SDS011;1879;45.876;12.300;2024-02-14T03:13:31;12.30;;;11.00;;
3726;SDS011;1879;45.876;12.300;2024-02-14T03:16:00;11.80;;;10.70;;
3726;SDS011;1879;45.876;12.300;2024-02-14T03:18:27;12.80;;;11.50;;
3726;SDS011;1879;45.876;12.300;2024-02-14T03:20:54;12.70;;;11.60;;
3726;SDS011;1879;45.876;12.300;2024-02-14T03:23:21;11.17;;;10.03;;
3726;SDS011;1879;45.876;12.300;2024-02-14T03:25:48;13.17;;;11.70;;
3726;SDS011;1879;45.876;12.300;2024-02-14T03:28:17;11.63;;;10.57;;
3726;SDS011;1879;45.876;12.300;2024-02-14T03:30:43;9.50;;;8.70;;
3726;SDS011;1879;45.876;12.300;2024-02-14T03:33:12;11.70;;;10.60;;
3726;SDS011;1879;45.876;12.300;2024-02-14T03:35:39;12.13;;;11.10;;
3726;SDS011;1879;45.876;12.300;2024-02-14T03:38:06;12.13;;;10.93;;
3726;SDS011;1879;45.876;12.300;2024-02-14T03:40:33;11.83;;;10.73;;
3726;SDS011;1879;45.876;12.300;2024-02-14T03:43:01;12.10;;;10.97;;
3726;SDS011;1879;45.876;12.300;2024-02-14T03:45:28;11.80;;;10.70;;
3726;SDS011;1879;45.876;12.300;2024-02-14T03:47:55;11.87;;;10.70;;
3726;SDS011;1879;45.876;12.300;2024-02-14T03:50:23;12.10;;;9.90;;
3726;SDS011;1879;45.876;12.300;2024-02-14T03:52:50;10.70;;;9.70;;
3726;SDS011;1879;45.876;12.300;2024-02-14T03:55:18;9.90;;;9.00;;
3726;SDS011;1879;45.876;12.300;2024-02-14T03:57:44;10.50;;;9.50;;
3726;SDS011;1879;45.876;12.300;2024-02-14T04:00:12;9.97;;;9.00;;
3726;SDS011;1879;45.876;12.300;2024-02-14T04:02:39;10.90;;;9.80;;
3726;SDS011;1879;45.876;12.300;2024-02-14T04:05:07;9.90;;;9.10;;
3726;SDS011;1879;45.876;12.300;2024-02-14T04:07:35;11.60;;;9.80;;
3726;SDS011;1879;45.876;12.300;2024-02-14T04:10:03;9.33;;;8.43;;
3726;SDS011;1879;45.876;12.300;2024-02-14T04:12:30;9.73;;;8.83;;
3726;SDS011;1879;45.876;12.300;2024-02-14T04:14:57;9.97;;;9.00;;
3726;SDS011;1879;45.876;12.300;2024-02-14T04:17:24;9.23;;;8.33;;
3726;SDS011;1879;45.876;12.300;2024-02-14T04:19:51;10.90;;;9.80;;
3726;SDS011;1879;45.876;12.300;2024-02-14T04:22:18;11.27;;;10.30;;
3726;SDS011;1879;45.876;12.300;2024-02-14T04:24:47;10.13;;;9.10;;
3726;SDS011;1879;45.876;12.300;2024-02-14T04:27:14;9.53;;;8.67;;
3726;SDS011;1879;45.876;12.300;2024-02-14T04:29:44;9.93;;;8.93;;
3726;SDS011;1879;45.876;12.300;2024-02-14T04:32:11;8.90;;;8.10;;
3726;SDS011;1879;45.876;12.300;2024-02-14T04:34:39;8.23;;;7.53;;
3726;SDS011;1879;45.876;12.300;2024-02-14T04:37:07;7.70;;;6.90;;
3726;SDS011;1879;45.876;12.300;2024-02-14T04:39:37;7.47;;;6.73;;
3726;SDS011;1879;45.876;12.300;2024-02-14T04:42:06;7.17;;;6.40;;
3726;SDS011;1879;45.876;12.300;2024-02-14T04:44:32;7.43;;;6.83;;
3726;SDS011;1879;45.876;12.300;2024-02-14T04:47:00;8.20;;;7.03;;
3726;SDS011;1879;45.876;12.300;2024-02-14T04:49:27;7.83;;;6.40;;
3726;SDS011;1879;45.876;12.300;2024-02-14T04:51:55;7.53;;;6.83;;
3726;SDS011;1879;45.876;12.300;2024-02-14T04:54:22;7.60;;;6.83;;
3726;SDS011;1879;45.876;12.300;2024-02-14T04:56:50;7.03;;;6.43;;
3726;SDS011;1879;45.876;12.300;2024-02-14T04:59:18;11.20;;;7.90;;
3726;SDS011;1879;45.876;12.300;2024-02-14T05:01:45;9.43;;;6.97;;
3726;SDS011;1879;45.876;12.300;2024-02-14T05:04:12;10.13;;;6.57;;
3726;SDS011;1879;45.876;12.300;2024-02-14T05:06:39;10.40;;;6.43;;
3726;SDS011;1879;45.876;12.300;2024-02-14T05:09:07;6.87;;;6.30;;
3726;SDS011;1879;45.876;12.300;2024-02-14T05:11:35;7.70;;;7.00;;
3726;SDS011;1879;45.876;12.300;2024-02-14T05:14:02;7.87;;;6.30;;
3726;SDS011;1879;45.876;12.300;2024-02-14T05:16:30;6.67;;;6.17;;
3726;SDS011;1879;45.876;12.300;2024-02-14T05:18:57;12.10;;;6.30;;
3726;SDS011;1879;45.876;12.300;2024-02-14T05:21:26;8.60;;;5.97;;
3726;SDS011;1879;45.876;12.300;2024-02-14T05:23:53;6.30;;;5.70;;
3726;SDS011;1879;45.876;12.300;2024-02-14T05:26:20;6.77;;;6.17;;
3726;SDS011;1879;45.876;12.300;2024-02-14T05:28:47;7.10;;;6.27;;
3726;SDS011;1879;45.876;12.300;2024-02-14T05:31:14;7.23;;;6.10;;
3726;SDS011;1879;45.876;12.300;2024-02-14T05:33:43;8.67;;;6.20;;
3726;SDS011;1879;45.876;12.300;2024-02-14T05:36:10;8.13;;;6.37;;
3726;SDS011;1879;45.876;12.300;2024-02-14T05:38:37;7.03;;;6.33;;
3726;SDS011;1879;45.876;12.300;2024-02-14T05:41:04;6.87;;;5.93;;
3726;SDS011;1879;45.876;12.300;2024-02-14T05:43:32;11.30;;;7.07;;
3726;SDS011;1879;45.876;12.300;2024-02-14T05:45:59;7.33;;;6.63;;
3726;SDS011;1879;45.876;12.300;2024-02-14T05:48:26;8.23;;;7.43;;
3726;SDS011;1879;45.876;12.300;2024-02-14T05:50:54;7.67;;;6.97;;
3726;SDS011;1879;45.876;12.300;2024-02-14T05:53:21;7.60;;;5.70;;
3726;SDS011;1879;45.876;12.300;2024-02-14T05:55:48;9.10;;;7.60;;
3726;SDS011;1879;45.876;12.300;2024-02-14T05:58:15;8.07;;;7.30;;
3726;SDS011;1879;45.876;12.300;2024-02-14T06:00:42;7.37;;;6.77;;
3726;SDS011;1879;45.876;12.300;2024-02-14T06:03:09;8.33;;;7.63;;
3726;SDS011;1879;45.876;12.300;2024-02-14T06:05:36;7.43;;;6.73;;
3726;SDS011;1879;45.876;12.300;2024-02-14T06:08:04;8.03;;;7.33;;
3726;SDS011;1879;45.876;12.300;2024-02-14T06:10:32;7.33;;;6.63;;
3726;SDS011;1879;45.876;12.300;2024-02-14T06:13:00;7.83;;;7.20;;
3726;SDS011;1879;45.876;12.300;2024-02-14T06:15:27;8.90;;;6.80;;
3726;SDS011;1879;45.876;12.300;2024-02-14T06:17:54;7.50;;;6.93;;
3726;SDS011;1879;45.876;12.300;2024-02-14T06:20:21;7.70;;;6.30;;
3726;SDS011;1879;45.876;12.300;2024-02-14T06:22:48;8.43;;;6.50;;
3726;SDS011;1879;45.876;12.300;2024-02-14T06:25:16;7.13;;;6.40;;
3726;SDS011;1879;45.876;12.300;2024-02-14T06:27:43;11.53;;;8.70;;
3726;SDS011;1879;45.876;12.300;2024-02-14T06:30:10;7.77;;;7.03;;
3726;SDS011;1879;45.876;12.300;2024-02-14T06:32:38;8.03;;;7.30;;
3726;SDS011;1879;45.876;12.300;2024-02-14T06:35:05;9.33;;;6.37;;
3726;SDS011;1879;45.876;12.300;2024-02-14T06:37:32;8.03;;;7.23;;
3726;SDS011;1879;45.876;12.300;2024-02-14T06:39:59;9.30;;;8.10;;
3726;SDS011;1879;45.876;12.300;2024-02-14T06:42:27;16.47;;;13.07;;
3726;SDS011;1879;45.876;12.300;2024-02-14T06:44:54;10.23;;;9.23;;
3726;SDS011;1879;45.876;12.300;2024-02-14T06:47:21;12.17;;;11.07;;
3726;SDS011;1879;45.876;12.300;2024-02-14T06:49:48;15.03;;;13.53;;
3726;SDS011;1879;45.876;12.300;2024-02-14T06:52:15;15.10;;;13.50;;
3726;SDS011;1879;45.876;12.300;2024-02-14T06:54:42;15.80;;;14.30;;
3726;SDS011;1879;45.876;12.300;2024-02-14T06:57:10;17.40;;;15.70;;
3726;SDS011;1879;45.876;12.300;2024-02-14T06:59:38;20.87;;;18.97;;
3726;SDS011;1879;45.876;12.300;2024-02-14T07:02:05;22.83;;;20.70;;
3726;SDS011;1879;45.876;12.300;2024-02-14T07:04:32;24.43;;;22.33;;
3726;SDS011;1879;45.876;12.300;2024-02-14T07:06:59;21.80;;;19.60;;
3726;SDS011;1879;45.876;12.300;2024-02-14T07:09:26;11.00;;;10.10;;
3726;SDS011;1879;45.876;12.300;2024-02-14T07:11:54;14.43;;;13.23;;
3726;SDS011;1879;45.876;12.300;2024-02-14T07:14:21;13.30;;;12.00;;
3726;SDS011;1879;45.876;12.300;2024-02-14T07:16:50;11.80;;;10.70;;
3726;SDS011;1879;45.876;12.300;2024-02-14T07:19:17;12.27;;;11.27;;
3726;SDS011;1879;45.876;12.300;2024-02-14T07:21:44;13.23;;;12.07;;
3726;SDS011;1879;45.876;12.300;2024-02-14T07:24:11;14.17;;;10.60;;
3726;SDS011;1879;45.876;12.300;2024-02-14T07:26:38;12.73;;;11.40;;
3726;SDS011;1879;45.876;12.300;2024-02-14T07:29:06;15.40;;;11.27;;
3726;SDS011;1879;45.876;12.300;2024-02-14T07:31:33;11.83;;;10.43;;
3726;SDS011;1879;45.876;12.300;2024-02-14T07:34:01;11.17;;;10.03;;
3726;SDS011;1879;45.876;12.300;2024-02-14T07:36:29;11.70;;;10.50;;
3726;SDS011;1879;45.876;12.300;2024-02-14T07:38:56;12.10;;;10.80;;
3726;SDS011;1879;45.876;12.300;2024-02-14T07:41:23;11.67;;;10.57;;
3726;SDS011;1879;45.876;12.300;2024-02-14T07:43:50;15.40;;;10.60;;
3726;SDS011;1879;45.876;12.300;2024-02-14T07:46:18;18.93;;;11.53;;
3726;SDS011;1879;45.876;12.300;2024-02-14T07:48:45;12.20;;;11.00;;
3726;SDS011;1879;45.876;12.300;2024-02-14T07:51:15;11.80;;;10.70;;
3726;SDS011;1879;45.876;12.300;2024-02-14T07:53:42;13.03;;;11.80;;
3726;SDS011;1879;45.876;12.300;2024-02-14T07:56:09;12.80;;;11.70;;
3726;SDS011;1879;45.876;12.300;2024-02-14T07:58:36;12.17;;;11.13;;
3726;SDS011;1879;45.876;12.300;2024-02-14T08:01:03;11.40;;;10.23;;
3726;SDS011;1879;45.876;12.300;2024-02-14T08:03:30;13.17;;;12.00;;
3726;SDS011;1879;45.876;12.300;2024-02-14T08:05:57;12.03;;;11.03;;
3726;SDS011;1879;45.876;12.300;2024-02-14T08:08:27;12.43;;;11.33;;
3726;SDS011;1879;45.876;12.300;2024-02-14T08:10:54;13.83;;;12.03;;
3726;SDS011;1879;45.876;12.300;2024-02-14T08:13:20;14.07;;;12.73;;
3726;SDS011;1879;45.876;12.300;2024-02-14T08:15:47;11.43;;;10.50;;
3726;SDS011;1879;45.876;12.300;2024-02-14T08:18:15;10.97;;;9.87;;
3726;SDS011;1879;45.876;12.300;2024-02-14T08:20:42;12.63;;;10.00;;
3726;SDS011;1879;45.876;12.300;2024-02-14T08:23:08;10.13;;;9.13;;
3726;SDS011;1879;45.876;12.300;2024-02-14T08:25:37;10.40;;;9.30;;
3726;SDS011;1879;45.876;12.300;2024-02-14T08:28:04;10.70;;;8.73;;
3726;SDS011;1879;45.876;12.300;2024-02-14T08:30:32;9.43;;;8.53;;
3726;SDS011;1879;45.876;12.300;2024-02-14T08:32:59;10.40;;;9.30;;
3726;SDS011;1879;45.876;12.300;2024-02-14T08:35:26;12.23;;;11.00;;
3726;SDS011;1879;45.876;12.300;2024-02-14T08:37:53;11.80;;;10.53;;
3726;SDS011;1879;45.876;12.300;2024-02-14T08:40:20;10.60;;;9.60;;
3726;SDS011;1879;45.876;12.300;2024-02-14T08:42:48;10.60;;;9.53;;
3726;SDS011;1879;45.876;12.300;2024-02-14T08:45:15;22.40;;;14.40;;
3726;SDS011;1879;45.876;12.300;2024-02-14T08:47:43;32.50;;;18.43;;
3726;SDS011;1879;45.876;12.300;2024-02-14T08:50:10;22.63;;;15.67;;
3726;SDS011;1879;45.876;12.300;2024-02-14T08:52:37;16.47;;;11.60;;
3726;SDS011;1879;45.876;12.300;2024-02-14T08:55:05;18.07;;;12.53;;
3726;SDS011;1879;45.876;12.300;2024-02-14T08:57:39;17.70;;;13.00;;
3726;SDS011;1879;45.876;12.300;2024-02-14T09:00:11;11.40;;;8.23;;
3726;SDS011;1879;45.876;12.300;2024-02-14T09:02:44;4.10;;;3.70;;
3726;SDS011;1879;45.876;12.300;2024-02-14T09:05:12;3.83;;;3.00;;
3726;SDS011;1879;45.876;12.300;2024-02-14T09:07:39;8.20;;;4.10;;
3726;SDS011;1879;45.876;12.300;2024-02-14T09:10:07;4.57;;;4.10;;
3726;SDS011;1879;45.876;12.300;2024-02-14T09:12:35;5.13;;;4.20;;
3726;SDS011;1879;45.876;12.300;2024-02-14T09:15:02;4.80;;;4.07;;
3726;SDS011;1879;45.876;12.300;2024-02-14T09:17:31;6.00;;;3.83;;
3726;SDS011;1879;45.876;12.300;2024-02-14T09:19:58;5.20;;;4.70;;
3726;SDS011;1879;45.876;12.300;2024-02-14T09:22:25;5.23;;;4.03;;
3726;SDS011;1879;45.876;12.300;2024-02-14T09:24:53;4.23;;;3.83;;
3726;SDS011;1879;45.876;12.300;2024-02-14T09:27:21;5.17;;;4.67;;
3726;SDS011;1879;45.876;12.300;2024-02-14T09:29:48;5.00;;;4.60;;
3726;SDS011;1879;45.876;12.300;2024-02-14T09:32:15;4.90;;;4.50;;
3726;SDS011;1879;45.876;12.300;2024-02-14T09:34:44;5.40;;;4.90;;
3726;SDS011;1879;45.876;12.300;2024-02-14T09:37:11;5.10;;;4.60;;
3726;SDS011;1879;45.876;12.300;2024-02-14T09:39:38;5.83;;;4.80;;
3726;SDS011;1879;45.876;12.300;2024-02-14T09:42:07;5.10;;;4.60;;
3726;SDS011;1879;45.876;12.300;2024-02-14T09:44:35;4.93;;;4.37;;
3726;SDS011;1879;45.876;12.300;2024-02-14T09:47:04;4.30;;;3.90;;
3726;SDS011;1879;45.876;12.300;2024-02-14T09:49:32;5.33;;;4.60;;
3726;SDS011;1879;45.876;12.300;2024-02-14T09:52:03;5.73;;;3.87;;
3726;SDS011;1879;45.876;12.300;2024-02-14T09:54:31;6.43;;;4.77;;
3726;SDS011;1879;45.876;12.300;2024-02-14T09:56:59;4.40;;;4.00;;
3726;SDS011;1879;45.876;12.300;2024-02-14T09:59:28;4.47;;;4.07;;
3726;SDS011;1879;45.876;12.300;2024-02-14T10:01:56;4.37;;;3.67;;
3726;SDS011;1879;45.876;12.300;2024-02-14T10:04:23;5.40;;;3.60;;
3726;SDS011;1879;45.876;12.300;2024-02-14T10:06:50;4.10;;;3.77;;
3726;SDS011;1879;45.876;12.300;2024-02-14T10:09:20;5.33;;;4.00;;
3726;SDS011;1879;45.876;12.300;2024-02-14T10:11:48;4.37;;;3.33;;
3726;SDS011;1879;45.876;12.300;2024-02-14T10:14:15;5.90;;;3.60;;
3726;SDS011;1879;45.876;12.300;2024-02-14T10:16:42;5.20;;;3.50;;
3726;SDS011;1879;45.876;12.300;2024-02-14T10:19:16;4.20;;;3.80;;
3726;SDS011;1879;45.876;12.300;2024-02-14T10:21:44;3.60;;;3.30;;
3726;SDS011;1879;45.876;12.300;2024-02-14T10:24:25;4.97;;;4.00;;
3726;SDS011;1879;45.876;12.300;2024-02-14T10:26:52;7.07;;;4.00;;
3726;SDS011;1879;45.876;12.300;2024-02-14T10:29:22;5.13;;;4.17;;
3726;SDS011;1879;45.876;12.300;2024-02-14T10:31:50;5.00;;;3.60;;
3726;SDS011;1879;45.876;12.300;2024-02-14T10:34:17;4.10;;;3.70;;
3726;SDS011;1879;45.876;12.300;2024-02-14T10:36:46;4.40;;;3.83;;
3726;SDS011;1879;45.876;12.300;2024-02-14T10:39:15;4.60;;;4.20;;
3726;SDS011;1879;45.876;12.300;2024-02-14T10:41:47;4.90;;;4.07;;
3726;SDS011;1879;45.876;12.300;2024-02-14T10:44:15;4.47;;;4.07;;
3726;SDS011;1879;45.876;12.300;2024-02-14T10:46:42;5.33;;;4.83;;
3726;SDS011;1879;45.876;12.300;2024-02-14T10:49:12;5.47;;;4.23;;
3726;SDS011;1879;45.876;12.300;2024-02-14T10:51:42;5.07;;;4.20;;
3726;SDS011;1879;45.876;12.300;2024-02-14T10:54:13;4.77;;;3.70;;
3726;SDS011;1879;45.876;12.300;2024-02-14T10:56:42;5.23;;;3.97;;
3726;SDS011;1879;45.876;12.300;2024-02-14T10:59:15;4.57;;;4.17;;
3726;SDS011;1879;45.876;12.300;2024-02-14T11:01:44;5.07;;;4.67;;
3726;SDS011;1879;45.876;12.300;2024-02-14T11:04:12;4.33;;;3.77;;
3726;SDS011;1879;45.876;12.300;2024-02-14T11:06:46;7.13;;;4.13;;
3726;SDS011;1879;45.876;12.300;2024-02-14T11:09:15;4.70;;;4.30;;
3726;SDS011;1879;45.876;12.300;2024-02-14T11:11:42;4.37;;;3.87;;
3726;SDS011;1879;45.876;12.300;2024-02-14T11:14:12;4.00;;;3.57;;
3726;SDS011;1879;45.876;12.300;2024-02-14T11:16:41;5.03;;;3.80;;
3726;SDS011;1879;45.876;12.300;2024-02-14T11:19:12;4.20;;;3.40;;
3726;SDS011;1879;45.876;12.300;2024-02-14T11:21:41;5.20;;;4.10;;
3726;SDS011;1879;45.876;12.300;2024-02-14T11:24:10;5.20;;;4.63;;
3726;SDS011;1879;45.876;12.300;2024-02-14T11:26:38;5.07;;;4.57;;
3726;SDS011;1879;45.876;12.300;2024-02-14T11:29:05;6.90;;;6.30;;
3726;SDS011;1879;45.876;12.300;2024-02-14T11:31:35;7.40;;;6.57;;
3726;SDS011;1879;45.876;12.300;2024-02-14T11:34:03;7.93;;;7.13;;
3726;SDS011;1879;45.876;12.300;2024-02-14T11:36:34;7.90;;;7.20;;
3726;SDS011;1879;45.876;12.300;2024-02-14T11:39:03;7.80;;;6.97;;
3726;SDS011;1879;45.876;12.300;2024-02-14T11:41:32;9.47;;;8.47;;
3726;SDS011;1879;45.876;12.300;2024-02-14T11:44:00;7.17;;;6.47;;
3726;SDS011;1879;45.876;12.300;2024-02-14T11:46:29;6.30;;;5.70;;
3726;SDS011;1879;45.876;12.300;2024-02-14T11:48:59;4.83;;;4.43;;
3726;SDS011;1879;45.876;12.300;2024-02-14T11:51:27;4.90;;;4.50;;
3726;SDS011;1879;45.876;12.300;2024-02-14T11:53:55;4.60;;;4.30;;
3726;SDS011;1879;45.876;12.300;2024-02-14T11:56:29;5.27;;;4.77;;
3726;SDS011;1879;45.876;12.300;2024-02-14T11:58:59;5.00;;;4.60;;
3726;SDS011;1879;45.876;12.300;2024-02-14T12:01:28;3.77;;;3.47;;
3726;SDS011;1879;45.876;12.300;2024-02-14T12:03:55;3.67;;;3.37;;
3726;SDS011;1879;45.876;12.300;2024-02-14T12:06:24;3.80;;;3.50;;
3726;SDS011;1879;45.876;12.300;2024-02-14T12:08:51;3.80;;;3.50;;
3726;SDS011;1879;45.876;12.300;2024-02-14T12:11:18;4.50;;;4.10;;
3726;SDS011;1879;45.876;12.300;2024-02-14T12:13:48;4.30;;;3.90;;
3726;SDS011;1879;45.876;12.300;2024-02-14T12:16:16;4.30;;;3.97;;
3726;SDS011;1879;45.876;12.300;2024-02-14T12:18:46;4.53;;;3.80;;
3726;SDS011;1879;45.876;12.300;2024-02-14T12:21:13;3.90;;;3.60;;
3726;SDS011;1879;45.876;12.300;2024-02-14T12:23:41;4.73;;;4.17;;
3726;SDS011;1879;45.876;12.300;2024-02-14T12:26:08;4.80;;;3.93;;
3726;SDS011;1879;45.876;12.300;2024-02-14T12:28:40;5.03;;;3.70;;
3726;SDS011;1879;45.876;12.300;2024-02-14T12:31:07;3.90;;;3.50;;
3726;SDS011;1879;45.876;12.300;2024-02-14T12:33:34;4.57;;;4.17;;
3726;SDS011;1879;45.876;12.300;2024-02-14T12:36:02;4.13;;;3.83;;
3726;SDS011;1879;45.876;12.300;2024-02-14T12:38:32;3.80;;;3.50;;
3726;SDS011;1879;45.876;12.300;2024-02-14T12:41:01;4.60;;;4.23;;
3726;SDS011;1879;45.876;12.300;2024-02-14T12:43:28;4.10;;;3.80;;
3726;SDS011;1879;45.876;12.300;2024-02-14T12:45:55;4.63;;;4.23;;
3726;SDS011;1879;45.876;12.300;2024-02-14T12:48:24;5.10;;;4.70;;
3726;SDS011;1879;45.876;12.300;2024-02-14T12:50:53;4.37;;;4.07;;
3726;SDS011;1879;45.876;12.300;2024-02-14T12:53:21;4.00;;;3.70;;
3726;SDS011;1879;45.876;12.300;2024-02-14T12:55:48;4.57;;;4.23;;
3726;SDS011;1879;45.876;12.300;2024-02-14T12:58:16;4.13;;;3.83;;
3726;SDS011;1879;45.876;12.300;2024-02-14T13:00:44;4.87;;;4.47;;
3726;SDS011;1879;45.876;12.300;2024-02-14T13:03:10;4.47;;;4.07;;
3726;SDS011;1879;45.876;12.300;2024-02-14T13:05:37;4.47;;;4.10;;
3726;SDS011;1879;45.876;12.300;2024-02-14T13:08:06;4.30;;;4.00;;
3726;SDS011;1879;45.876;12.300;2024-02-14T13:10:34;3.83;;;3.50;;
3726;SDS011;1879;45.876;12.300;2024-02-14T13:13:01;6.07;;;3.77;;
3726;SDS011;1879;45.876;12.300;2024-02-14T13:15:29;3.80;;;3.50;;
3726;SDS011;1879;45.876;12.300;2024-02-14T13:17:56;3.33;;;3.13;;
3726;SDS011;1879;45.876;12.300;2024-02-14T13:20:24;3.80;;;3.50;;
3726;SDS011;1879;45.876;12.300;2024-02-14T13:22:51;4.27;;;3.97;;
3726;SDS011;1879;45.876;12.300;2024-02-14T13:25:18;3.70;;;3.40;;
3726;SDS011;1879;45.876;12.300;2024-02-14T13:27:45;3.57;;;3.27;;
3726;SDS011;1879;45.876;12.300;2024-02-14T13:30:12;4.20;;;3.90;;
3726;SDS011;1879;45.876;12.300;2024-02-14T13:32:40;3.87;;;3.47;;
3726;SDS011;1879;45.876;12.300;2024-02-14T13:35:07;3.90;;;3.40;;
3726;SDS011;1879;45.876;12.300;2024-02-14T13:37:36;4.10;;;3.80;;
3726;SDS011;1879;45.876;12.300;2024-02-14T13:40:03;4.33;;;3.83;;
3726;SDS011;1879;45.876;12.300;2024-02-14T13:42:35;4.37;;;3.97;;
3726;SDS011;1879;45.876;12.300;2024-02-14T13:45:03;4.10;;;3.80;;
3726;SDS011;1879;45.876;12.300;2024-02-14T13:47:34;4.53;;;4.23;;
3726;SDS011;1879;45.876;12.300;2024-02-14T13:50:05;5.07;;;4.77;;
3726;SDS011;1879;45.876;12.300;2024-02-14T13:52:33;5.00;;;4.70;;
3726;SDS011;1879;45.876;12.300;2024-02-14T13:55:00;4.70;;;4.30;;
3726;SDS011;1879;45.876;12.300;2024-02-14T13:57:28;3.53;;;3.23;;
3726;SDS011;1879;45.876;12.300;2024-02-14T13:59:55;4.50;;;4.20;;
3726;SDS011;1879;45.876;12.300;2024-02-14T14:02:22;4.47;;;4.17;;
3726;SDS011;1879;45.876;12.300;2024-02-14T14:04:49;4.10;;;3.80;;
3726;SDS011;1879;45.876;12.300;2024-02-14T14:07:19;4.67;;;4.37;;
3726;SDS011;1879;45.876;12.300;2024-02-14T14:09:48;5.33;;;5.03;;
3726;SDS011;1879;45.876;12.300;2024-02-14T14:12:15;4.83;;;4.43;;
3726;SDS011;1879;45.876;12.300;2024-02-14T14:14:42;5.60;;;5.10;;
3726;SDS011;1879;45.876;12.300;2024-02-14T14:17:09;6.83;;;6.33;;
3726;SDS011;1879;45.876;12.300;2024-02-14T14:19:36;6.20;;;5.80;;
3726;SDS011;1879;45.876;12.300;2024-02-14T14:22:03;6.40;;;5.90;;
3726;SDS011;1879;45.876;12.300;2024-02-14T14:24:32;5.50;;;5.07;;
3726;SDS011;1879;45.876;12.300;2024-02-14T14:26:58;5.80;;;5.40;;
3726;SDS011;1879;45.876;12.300;2024-02-14T14:29:25;5.67;;;5.17;;
3726;SDS011;1879;45.876;12.300;2024-02-14T14:31:53;5.47;;;5.07;;
3726;SDS011;1879;45.876;12.300;2024-02-14T14:34:20;6.43;;;6.03;;
3726;SDS011;1879;45.876;12.300;2024-02-14T14:36:47;6.50;;;5.97;;
3726;SDS011;1879;45.876;12.300;2024-02-14T14:39:13;5.80;;;5.37;;
3726;SDS011;1879;45.876;12.300;2024-02-14T14:41:42;7.20;;;6.60;;
3726;SDS011;1879;45.876;12.300;2024-02-14T14:44:09;6.93;;;6.33;;
3726;SDS011;1879;45.876;12.300;2024-02-14T14:46:36;8.20;;;7.50;;
3726;SDS011;1879;45.876;12.300;2024-02-14T14:49:07;7.33;;;6.73;;
3726;SDS011;1879;45.876;12.300;2024-02-14T14:51:34;7.47;;;6.50;;
3726;SDS011;1879;45.876;12.300;2024-02-14T14:54:03;8.67;;;7.97;;